createdAt,value
2022-10-22T00:00:55.512Z,11.8
2022-10-22T00:02:34.411Z,11.9
2022-10-22T00:04:45.119Z,11.9
2022-10-22T00:06:40.375Z,12
2022-10-22T00:07:46.947Z,12
2022-10-22T00:08:53.389Z,12
2022-10-22T00:09:59.769Z,12
2022-10-22T00:11:06.102Z,12
2022-10-22T00:12:12.679Z,12.1
2022-10-22T00:13:19.114Z,12.1
2022-10-22T00:14:25.548Z,12.2
2022-10-22T00:15:31.973Z,12.2
2022-10-22T00:16:38.353Z,12.3
2022-10-22T00:17:44.863Z,12.3
2022-10-22T00:18:51.283Z,12.4
2022-10-22T00:19:57.595Z,12.4
2022-10-22T00:21:04.004Z,12.4
2022-10-22T00:22:10.453Z,12.5
2022-10-22T00:23:16.994Z,12.5
2022-10-22T00:24:23.419Z,12.5
2022-10-22T00:25:29.896Z,12.5
2022-10-22T00:26:36.331Z,12.5
2022-10-22T00:27:42.604Z,12.4
2022-10-22T00:28:49.191Z,12.4
2022-10-22T00:29:55.628Z,12.4
2022-10-22T00:31:02.068Z,12.4
2022-10-22T00:32:08.503Z,12.3
2022-10-22T00:33:14.906Z,12.3
2022-10-22T00:34:21.500Z,12.3
2022-10-22T00:35:28.002Z,12.3
2022-10-22T00:36:34.606Z,12.3
2022-10-22T00:37:41.124Z,12.4
2022-10-22T00:38:47.688Z,12.4
2022-10-22T00:39:54.195Z,12.5
2022-10-22T00:41:00.766Z,12.5
2022-10-22T00:42:07.222Z,12.6
2022-10-22T00:43:13.898Z,12.7
2022-10-22T00:44:20.422Z,12.7
2022-10-22T00:45:27.039Z,12.7
2022-10-22T00:46:33.588Z,12.7
2022-10-22T00:47:40.150Z,12.6
2022-10-22T00:48:47.899Z,12.6
2022-10-22T00:49:54.581Z,12.7
2022-10-22T00:51:01.399Z,12.7
2022-10-22T00:52:08.231Z,12.7
2022-10-22T00:53:15.064Z,12.8
2022-10-22T00:54:21.910Z,12.7
2022-10-22T00:55:28.666Z,12.7
2022-10-22T00:56:35.474Z,12.7
2022-10-22T00:57:42.265Z,12.7
2022-10-22T00:58:49.045Z,12.7
2022-10-22T00:59:55.781Z,12.6
2022-10-22T01:01:02.606Z,12.6
2022-10-22T01:02:09.275Z,12.6
2022-10-22T01:05:27.515Z,12.5
2022-10-22T01:06:34.694Z,12.4
2022-10-22T01:07:42.125Z,12.4
2022-10-22T01:09:20.873Z,12.3
2022-10-22T01:10:59.558Z,12.3
2022-10-22T01:12:38.311Z,12.3
2022-10-22T01:14:16.904Z,12.3
2022-10-22T01:15:55.816Z,12.3
2022-10-22T01:17:34.553Z,12.3
2022-10-22T01:19:13.258Z,12.3
2022-10-22T01:20:51.889Z,12.3
2022-10-22T01:22:30.730Z,12.3
2022-10-22T01:23:37.854Z,12.2
2022-10-22T01:26:38.573Z,12.2
2022-10-22T01:29:54.196Z,12.1
2022-10-22T01:31:00.582Z,12
2022-10-22T01:32:07.118Z,12
2022-10-22T01:33:13.521Z,12
2022-10-22T01:34:19.986Z,11.9
2022-10-22T01:35:26.435Z,11.9
2022-10-22T01:36:32.866Z,11.8
2022-10-22T01:37:39.166Z,11.8
2022-10-22T01:38:45.742Z,11.7
2022-10-22T01:39:52.195Z,11.7
2022-10-22T01:40:58.601Z,11.6
2022-10-22T01:42:05.051Z,11.6
2022-10-22T01:43:11.502Z,11.6
2022-10-22T01:44:17.931Z,11.5
2022-10-22T01:45:24.383Z,11.5
2022-10-22T01:46:30.710Z,11.5
2022-10-22T01:47:37.106Z,11.5
2022-10-22T01:48:43.679Z,11.4
2022-10-22T01:49:50.017Z,11.4
2022-10-22T01:50:56.542Z,11.4
2022-10-22T01:52:02.924Z,11.4
2022-10-22T01:53:09.425Z,11.3
2022-10-22T01:54:15.862Z,11.3
2022-10-22T01:55:22.305Z,11.3
2022-10-22T01:56:28.694Z,11.3
2022-10-22T01:57:35.383Z,11.2
2022-10-22T01:58:41.726Z,11.2
2022-10-22T01:59:48.291Z,11.2
2022-10-22T02:00:54.839Z,11.2
2022-10-22T02:02:01.515Z,11.2
2022-10-22T02:03:08.085Z,11.2
2022-10-22T02:04:14.543Z,11.3
2022-10-22T02:05:21.172Z,11.2
2022-10-22T02:06:27.702Z,11.2
2022-10-22T02:07:34.273Z,11.2
2022-10-22T02:08:40.768Z,11.2
2022-10-22T02:09:47.459Z,11.2
2022-10-22T02:10:54.031Z,11.2
2022-10-22T02:12:00.780Z,11.2
2022-10-22T02:13:07.535Z,11.2
2022-10-22T02:14:14.365Z,11.2
2022-10-22T02:15:21.202Z,11.2
2022-10-22T02:16:27.924Z,11.2
2022-10-22T02:17:34.698Z,11.1
2022-10-22T02:18:41.404Z,11.1
2022-10-22T02:19:48.331Z,11.1
2022-10-22T02:20:54.999Z,11.1
2022-10-22T02:22:01.927Z,11.1
2022-10-22T02:24:15.533Z,11.1
2022-10-22T02:25:22.285Z,11
2022-10-22T02:28:01.657Z,11
2022-10-22T02:29:40.342Z,11.1
2022-10-22T02:31:19.064Z,11.1
2022-10-22T02:32:57.839Z,11.1
2022-10-22T02:34:05.141Z,11.1
2022-10-22T02:35:12.265Z,11.1
2022-10-22T02:36:51.144Z,11.1
2022-10-22T02:38:29.835Z,11
2022-10-22T02:40:08.576Z,11
2022-10-22T02:41:47.328Z,11
2022-10-22T02:43:26.082Z,10.9
2022-10-22T02:45:04.743Z,10.9
2022-10-22T02:46:43.516Z,10.8
2022-10-22T02:50:33.143Z,10.8
2022-10-22T02:51:39.603Z,10.9
2022-10-22T02:52:45.937Z,10.9
2022-10-22T02:53:52.514Z,10.9
2022-10-22T02:54:58.934Z,10.9
2022-10-22T02:56:05.374Z,10.9
2022-10-22T02:57:11.653Z,10.9
2022-10-22T02:58:18.180Z,10.9
2022-10-22T02:59:24.540Z,10.9
2022-10-22T03:00:31.041Z,10.8
2022-10-22T03:01:37.500Z,10.8
2022-10-22T03:02:43.972Z,10.8
2022-10-22T03:03:50.356Z,10.8
2022-10-22T03:04:56.841Z,10.8
2022-10-22T03:06:03.268Z,10.7
2022-10-22T03:07:09.637Z,10.7
2022-10-22T03:08:16.109Z,10.6
2022-10-22T03:09:22.445Z,10.6
2022-10-22T03:10:28.868Z,10.6
2022-10-22T03:11:35.302Z,10.6
2022-10-22T03:12:41.823Z,10.5
2022-10-22T03:13:48.276Z,10.5
2022-10-22T03:14:54.717Z,10.4
2022-10-22T03:16:01.151Z,10.3
2022-10-22T03:17:07.599Z,10.3
2022-10-22T03:18:13.993Z,10.3
2022-10-22T03:19:20.463Z,10.3
2022-10-22T03:20:27.080Z,10.4
2022-10-22T03:21:33.707Z,10.4
2022-10-22T03:22:40.339Z,10.3
2022-10-22T03:23:46.751Z,10.2
2022-10-22T03:24:53.346Z,10.2
2022-10-22T03:25:59.786Z,10.2
2022-10-22T03:27:06.440Z,10.2
2022-10-22T03:28:12.962Z,10.2
2022-10-22T03:29:19.561Z,10.1
2022-10-22T03:30:26.013Z,10.1
2022-10-22T03:31:32.562Z,10.1
2022-10-22T03:32:39.090Z,10
2022-10-22T03:34:28.376Z,10
2022-10-22T03:35:35.160Z,10
2022-10-22T03:36:41.981Z,9.9
2022-10-22T03:37:48.741Z,9.9
2022-10-22T03:38:55.521Z,9.9
2022-10-22T03:40:02.293Z,9.8
2022-10-22T03:41:09.065Z,9.8
2022-10-22T03:42:15.843Z,9.8
2022-10-22T03:43:22.591Z,9.7
2022-10-22T03:44:29.362Z,9.7
2022-10-22T03:45:36.138Z,9.7
2022-10-22T03:46:42.920Z,9.7
2022-10-22T03:47:49.684Z,9.7
2022-10-22T03:51:07.863Z,9.7
2022-10-22T03:52:42.562Z,9.5
2022-10-22T03:53:48.958Z,9.6
2022-10-22T03:54:55.390Z,9.6
2022-10-22T03:56:01.799Z,9.6
2022-10-22T03:57:08.214Z,9.5
2022-10-22T03:58:14.630Z,9.5
2022-10-22T03:59:21.055Z,9.6
2022-10-22T04:00:27.464Z,9.6
2022-10-22T04:01:33.903Z,9.6
2022-10-22T04:02:40.301Z,9.6
2022-10-22T04:03:46.725Z,9.6
2022-10-22T04:04:53.173Z,9.6
2022-10-22T04:05:59.554Z,9.6
2022-10-22T04:07:05.967Z,9.5
2022-10-22T04:08:12.406Z,9.5
2022-10-22T04:09:18.795Z,9.5
2022-10-22T04:10:25.220Z,9.5
2022-10-22T04:11:31.731Z,9.5
2022-10-22T04:12:38.047Z,9.6
2022-10-22T04:13:44.461Z,9.6
2022-10-22T04:14:50.876Z,9.6
2022-10-22T04:15:57.294Z,9.6
2022-10-22T04:17:03.713Z,9.5
2022-10-22T04:18:10.130Z,9.5
2022-10-22T04:19:16.544Z,9.5
2022-10-22T04:20:23.093Z,9.5
2022-10-22T04:21:29.622Z,9.5
2022-10-22T04:22:36.160Z,9.5
2022-10-22T04:23:42.691Z,9.5
2022-10-22T04:24:49.223Z,9.5
2022-10-22T04:25:55.760Z,9.5
2022-10-22T04:27:02.311Z,9.6
2022-10-22T04:28:08.831Z,9.6
2022-10-22T04:29:15.360Z,9.6
2022-10-22T04:30:21.899Z,9.6
2022-10-22T04:31:28.441Z,9.6
2022-10-22T04:32:34.975Z,9.6
2022-10-22T04:33:41.506Z,9.6
2022-10-22T04:34:48.282Z,9.6
2022-10-22T04:35:55.053Z,9.7
2022-10-22T04:37:01.828Z,9.7
2022-10-22T04:38:08.602Z,9.7
2022-10-22T04:39:15.371Z,9.7
2022-10-22T04:40:22.141Z,9.8
2022-10-22T04:41:28.919Z,9.8
2022-10-22T04:42:35.681Z,9.8
2022-10-22T04:43:42.461Z,9.8
2022-10-22T04:44:49.234Z,9.8
2022-10-22T04:45:56.005Z,9.9
2022-10-22T04:47:02.797Z,9.9
2022-10-22T04:48:09.523Z,10
2022-10-22T04:50:49.894Z,10
2022-10-22T04:52:28.622Z,10.1
2022-10-22T04:54:07.350Z,10
2022-10-22T04:55:46.085Z,10.1
2022-10-22T04:56:53.345Z,10.2
2022-10-22T04:58:00.616Z,10.2
2022-10-22T04:59:39.346Z,10.3
2022-10-22T05:01:18.076Z,10.4
2022-10-22T05:02:56.818Z,10.4
2022-10-22T05:04:35.548Z,10.3
2022-10-22T05:06:14.349Z,10.3
2022-10-22T05:07:53.011Z,10.2
2022-10-22T05:09:31.743Z,10.1
2022-10-22T05:13:21.364Z,9.9
2022-10-22T05:14:29.614Z,9.6
2022-10-22T05:17:47.045Z,9.6
2022-10-22T05:21:04.469Z,9.5
2022-10-22T05:24:21.905Z,9.5
2022-10-22T05:27:39.316Z,9.4
2022-10-22T05:30:56.744Z,9.2
2022-10-22T05:34:14.193Z,9.2
2022-10-22T05:37:31.595Z,9.2
2022-10-22T05:40:49.027Z,9.3
2022-10-22T05:44:06.451Z,9.2
2022-10-22T05:46:15.383Z,9.1
2022-10-22T05:47:23.879Z,9.1
2022-10-22T05:53:09.612Z,9.1
2022-10-22T05:56:27.045Z,9.2
2022-10-22T05:59:44.472Z,9.2
2022-10-22T06:03:01.890Z,9.5
2022-10-22T06:06:19.318Z,9.5
2022-10-22T06:09:36.747Z,9.4
2022-10-22T06:12:54.174Z,9.5
2022-10-22T06:16:11.593Z,9.6
2022-10-22T06:19:09.374Z,9.6
2022-10-22T06:20:17.623Z,9.6
2022-10-22T06:23:35.049Z,9.6
2022-10-22T06:26:52.484Z,9.7
2022-10-22T06:30:09.938Z,9.7
2022-10-22T06:35:55.611Z,9.8
2022-10-22T06:39:11.170Z,10.1
2022-10-22T06:40:17.486Z,10.3
2022-10-22T06:41:23.863Z,10.3
2022-10-22T06:42:30.393Z,10.4
2022-10-22T06:43:36.754Z,10.4
2022-10-22T06:44:43.131Z,10.4
2022-10-22T06:45:49.494Z,10.4
2022-10-22T06:46:55.798Z,10.4
2022-10-22T06:48:02.209Z,10.4
2022-10-22T06:49:08.490Z,10.4
2022-10-22T06:50:14.875Z,10.4
2022-10-22T06:51:21.317Z,10.4
2022-10-22T06:52:27.720Z,10.4
2022-10-22T06:53:34.113Z,10.5
2022-10-22T06:54:40.493Z,10.5
2022-10-22T06:55:46.852Z,10.5
2022-10-22T06:56:53.284Z,10.4
2022-10-22T06:57:59.555Z,10.4
2022-10-22T06:59:05.986Z,10.4
2022-10-22T07:01:18.728Z,10.4
2022-10-22T07:02:25.105Z,10.4
2022-10-22T07:03:31.450Z,10.4
2022-10-22T07:04:37.766Z,10.5
2022-10-22T07:05:44.236Z,10.5
2022-10-22T07:06:50.692Z,10.5
2022-10-22T07:07:57.101Z,10.5
2022-10-22T07:09:03.403Z,10.6
2022-10-22T07:10:09.952Z,10.6
2022-10-22T07:11:16.352Z,10.7
2022-10-22T07:12:22.717Z,10.7
2022-10-22T07:13:29.283Z,10.7
2022-10-22T07:14:35.677Z,10.8
2022-10-22T07:16:48.595Z,11
2022-10-22T07:17:55.006Z,11
2022-10-22T07:19:01.443Z,11.1
2022-10-22T07:20:07.869Z,11.1
2022-10-22T07:21:14.477Z,11.2
2022-10-22T07:22:21.032Z,11.3
2022-10-22T07:23:27.573Z,11.3
2022-10-22T07:24:34.111Z,11.4
2022-10-22T07:25:40.671Z,11.5
2022-10-22T07:26:47.228Z,11.6
2022-10-22T07:27:53.745Z,11.6
2022-10-22T07:29:00.281Z,11.7
2022-10-22T07:30:06.917Z,11.8
2022-10-22T07:31:13.458Z,11.9
2022-10-22T07:32:19.980Z,12
2022-10-22T07:33:26.562Z,12.1
2022-10-22T07:34:33.042Z,12.2
2022-10-22T07:37:28.199Z,12.3
2022-10-22T07:38:35.084Z,12.4
2022-10-22T07:39:41.918Z,12.4
2022-10-22T07:40:48.732Z,12.5
2022-10-22T07:41:55.439Z,12.6
2022-10-22T07:43:02.323Z,12.7
2022-10-22T07:44:09.088Z,13.1
2022-10-22T07:45:15.885Z,13.5
2022-10-22T07:46:22.677Z,13.9
2022-10-22T07:47:29.437Z,14.2
2022-10-22T07:48:36.220Z,14.6
2022-10-22T07:49:43.038Z,14.9
2022-10-22T07:50:49.673Z,15.1
2022-10-22T07:54:07.975Z,15.2
2022-10-22T07:55:43.333Z,15.2
2022-10-22T07:56:50.592Z,15.2
2022-10-22T07:58:29.389Z,15
2022-10-22T08:00:08.162Z,15
2022-10-22T08:01:46.798Z,15.1
2022-10-22T08:03:25.500Z,15.1
2022-10-22T08:05:04.222Z,15.1
2022-10-22T08:06:43.044Z,15.1
2022-10-22T08:08:21.735Z,15.1
2022-10-22T08:10:00.514Z,15.1
2022-10-22T08:11:39.286Z,15.1
2022-10-22T08:12:46.441Z,15.1
2022-10-22T08:15:47.209Z,15.1
2022-10-22T08:19:02.841Z,15.2
2022-10-22T08:20:09.301Z,15.2
2022-10-22T08:21:15.648Z,15.3
2022-10-22T08:22:22.091Z,15.5
2022-10-22T08:23:28.478Z,15.8
2022-10-22T08:24:35.027Z,16.1
2022-10-22T08:25:41.424Z,16.4
2022-10-22T08:26:47.784Z,16.4
2022-10-22T08:27:54.217Z,16.2
2022-10-22T08:29:00.722Z,16.1
2022-10-22T08:30:07.154Z,16
2022-10-22T08:31:13.536Z,16
2022-10-22T08:32:20.051Z,16.4
2022-10-22T08:33:26.521Z,16.6
2022-10-22T08:34:32.923Z,16.9
2022-10-22T08:35:39.344Z,17.4
2022-10-22T08:36:45.763Z,17.8
2022-10-22T08:37:52.207Z,18
2022-10-22T08:38:58.648Z,18.2
2022-10-22T08:40:05.034Z,18.4
2022-10-22T08:41:11.413Z,18.2
2022-10-22T08:42:17.843Z,18
2022-10-22T08:43:24.291Z,17.7
2022-10-22T08:44:30.804Z,17.5
2022-10-22T08:45:37.105Z,17.4
2022-10-22T08:46:43.730Z,17.1
2022-10-22T08:47:50.265Z,17
2022-10-22T08:48:56.816Z,16.8
2022-10-22T08:50:03.330Z,16.9
2022-10-22T08:51:10.021Z,17
2022-10-22T08:52:16.591Z,16.9
2022-10-22T08:53:23.027Z,17
2022-10-22T08:54:29.565Z,17
2022-10-22T08:55:36.185Z,16.9
2022-10-22T08:56:42.734Z,16.8
2022-10-22T08:57:49.180Z,16.8
2022-10-22T08:58:55.876Z,16.7
2022-10-22T09:00:02.405Z,16.6
2022-10-22T09:01:09.184Z,16.6
2022-10-22T09:02:16.013Z,16.6
2022-10-22T09:03:22.770Z,16.6
2022-10-22T09:04:29.446Z,16.6
2022-10-22T09:05:36.240Z,16.6
2022-10-22T09:06:43.169Z,16.8
2022-10-22T09:07:49.967Z,17
2022-10-22T09:08:56.760Z,17.2
2022-10-22T09:10:03.535Z,17.3
2022-10-22T09:11:10.298Z,17.3
2022-10-22T09:12:17.107Z,17.2
2022-10-22T09:13:23.904Z,17.2
2022-10-22T09:14:30.709Z,17.2
2022-10-22T09:17:09.693Z,17.3
2022-10-22T09:18:48.406Z,17.3
2022-10-22T09:20:27.116Z,17.3
2022-10-22T09:22:05.759Z,17.4
2022-10-22T09:23:13.109Z,17.6
2022-10-22T09:24:20.382Z,17.7
2022-10-22T09:25:59.143Z,17.8
2022-10-22T09:27:37.893Z,17.9
2022-10-22T09:29:16.662Z,18
2022-10-22T09:30:55.300Z,18
2022-10-22T09:32:34.085Z,18
2022-10-22T09:34:12.813Z,17.8
2022-10-22T09:35:51.554Z,17.8
2022-10-22T09:39:41.162Z,17.8
2022-10-22T09:40:49.284Z,17.6
2022-10-22T09:44:05.075Z,17.5
2022-10-22T09:45:11.522Z,17.6
2022-10-22T09:46:18.105Z,17.8
2022-10-22T09:47:24.791Z,17.9
2022-10-22T09:48:31.174Z,18
2022-10-22T09:49:37.865Z,18.1
2022-10-22T09:50:44.369Z,18.1
2022-10-22T09:51:50.970Z,18.2
2022-10-22T09:52:57.425Z,18.2
2022-10-22T09:54:03.933Z,18.3
2022-10-22T09:55:10.591Z,18.4
2022-10-22T09:56:17.183Z,18.4
2022-10-22T09:57:23.733Z,18.4
2022-10-22T09:58:30.228Z,18.2
2022-10-22T09:59:36.861Z,18.1
2022-10-22T10:00:43.357Z,18
2022-10-22T10:01:49.803Z,18.1
2022-10-22T10:02:56.356Z,18.1
2022-10-22T10:04:03.059Z,18.1
2022-10-22T10:05:09.609Z,18.1
2022-10-22T10:06:16.138Z,18
2022-10-22T10:07:22.657Z,17.9
2022-10-22T10:08:29.261Z,17.9
2022-10-22T10:09:35.823Z,17.7
2022-10-22T10:10:42.355Z,17.7
2022-10-22T10:11:49.040Z,17.7
2022-10-22T10:12:55.985Z,17.6
2022-10-22T10:14:02.753Z,17.6
2022-10-22T10:15:09.554Z,17.6
2022-10-22T10:16:16.195Z,17.6
2022-10-22T10:17:23.162Z,17.5
2022-10-22T10:18:29.935Z,17.5
2022-10-22T10:19:36.697Z,17.5
2022-10-22T10:20:43.473Z,17.5
2022-10-22T10:21:50.199Z,17.5
2022-10-22T10:22:57.091Z,17.5
2022-10-22T10:24:03.916Z,17.5
2022-10-22T10:25:10.625Z,17.6
2022-10-22T10:28:28.807Z,17.7
2022-10-22T10:30:04.256Z,17.9
2022-10-22T10:31:11.581Z,18
2022-10-22T10:32:50.259Z,18
2022-10-22T10:34:28.938Z,18.1
2022-10-22T10:36:07.615Z,18.1
2022-10-22T10:37:46.500Z,18.2
2022-10-22T10:39:25.228Z,18.2
2022-10-22T10:41:03.850Z,18.3
2022-10-22T10:42:42.615Z,18.3
2022-10-22T10:44:21.287Z,18.4
2022-10-22T10:46:00.128Z,18.3
2022-10-22T10:47:07.315Z,18.3
2022-10-22T10:50:08.093Z,18.3
2022-10-22T10:53:23.764Z,18.1
2022-10-22T10:54:30.308Z,18.1
2022-10-22T10:55:36.873Z,18.1
2022-10-22T10:56:43.416Z,18.2
2022-10-22T10:57:49.970Z,18.1
2022-10-22T10:58:56.518Z,18.1
2022-10-22T11:00:03.068Z,18.1
2022-10-22T11:01:09.755Z,18.1
2022-10-22T11:02:16.197Z,18.1
2022-10-22T11:03:22.743Z,18.1
2022-10-22T11:04:29.298Z,18
2022-10-22T11:05:35.836Z,18
2022-10-22T11:06:42.404Z,18.1
2022-10-22T11:07:48.948Z,18
2022-10-22T11:08:55.479Z,18
2022-10-22T11:10:02.045Z,18
2022-10-22T11:11:08.571Z,18
2022-10-22T11:12:15.124Z,18.1
2022-10-22T11:13:21.679Z,18.1
2022-10-22T11:14:28.246Z,18.1
2022-10-22T11:15:34.795Z,18.2
2022-10-22T11:16:41.365Z,18.2
2022-10-22T11:17:47.887Z,18.1
2022-10-22T11:18:54.457Z,18.2
2022-10-22T11:20:01.012Z,18.3
2022-10-22T11:21:07.786Z,18.5
2022-10-22T11:22:14.611Z,18.6
2022-10-22T11:23:21.409Z,18.7
2022-10-22T11:24:28.158Z,18.7
2022-10-22T11:25:34.972Z,18.8
2022-10-22T11:26:41.739Z,18.9
2022-10-22T11:27:48.526Z,19
2022-10-22T11:28:55.310Z,19.2
2022-10-22T11:30:02.099Z,19.4
2022-10-22T11:31:08.895Z,19.4
2022-10-22T11:32:15.686Z,19.4
2022-10-22T11:34:29.260Z,19.4
2022-10-22T11:35:36.569Z,19.4
2022-10-22T11:37:15.304Z,19.5
2022-10-22T11:38:54.070Z,19.5
2022-10-22T11:40:32.757Z,19.7
2022-10-22T11:42:11.500Z,19.7
2022-10-22T11:43:50.233Z,19.4
2022-10-22T11:45:28.963Z,19.3
2022-10-22T11:47:07.696Z,19.2
2022-10-22T11:48:46.430Z,19
2022-10-22T11:50:25.164Z,18.9
2022-10-22T11:52:03.901Z,18.8
2022-10-22T11:53:42.625Z,18.9
2022-10-22T11:55:21.393Z,18.7
2022-10-22T11:59:29.360Z,18.6
2022-10-22T12:00:35.956Z,18.5
2022-10-22T12:02:45.025Z,18.5
2022-10-22T12:03:51.578Z,18.4
2022-10-22T12:04:58.135Z,18.4
2022-10-22T12:06:04.688Z,18.4
2022-10-22T12:07:11.242Z,18.4
2022-10-22T12:08:17.839Z,18.2
2022-10-22T12:09:24.430Z,18.2
2022-10-22T12:10:30.917Z,18.1
2022-10-22T12:11:37.440Z,18
2022-10-22T12:12:44.002Z,17.8
2022-10-22T12:13:50.547Z,17.7
2022-10-22T12:14:57.113Z,17.8
2022-10-22T12:16:03.682Z,17.7
2022-10-22T12:17:10.216Z,17.6
2022-10-22T12:18:16.779Z,17.6
2022-10-22T12:19:23.346Z,17.5
2022-10-22T12:20:29.921Z,17.5
2022-10-22T12:21:36.480Z,17.4
2022-10-22T12:22:43.093Z,17.4
2022-10-22T12:23:49.542Z,17.3
2022-10-22T12:24:56.098Z,17.2
2022-10-22T12:26:02.665Z,17.1
2022-10-22T12:27:09.226Z,17.1
2022-10-22T12:28:15.767Z,17
2022-10-22T12:29:22.551Z,17
2022-10-22T12:30:29.346Z,16.9
2022-10-22T12:31:36.132Z,16.7
2022-10-22T12:32:42.937Z,16.6
2022-10-22T12:33:49.711Z,16.6
2022-10-22T12:34:56.506Z,16.6
2022-10-22T12:36:03.322Z,16.7
2022-10-22T12:37:10.131Z,16.8
2022-10-22T12:38:16.892Z,17
2022-10-22T12:39:23.670Z,16.9
2022-10-22T12:40:30.458Z,16.9
2022-10-22T12:41:37.241Z,17
2022-10-22T12:42:44.035Z,17
2022-10-22T12:45:23.313Z,17.1
2022-10-22T12:47:02.069Z,17.3
2022-10-22T12:48:40.791Z,17.3
2022-10-22T12:50:19.519Z,17.3
2022-10-22T12:51:26.790Z,17.3
2022-10-22T12:52:34.055Z,17.2
2022-10-22T12:54:12.797Z,17.2
2022-10-22T12:55:51.523Z,17.1
2022-10-22T12:57:30.265Z,17.3
2022-10-22T12:59:09.027Z,17.3
2022-10-22T13:00:47.749Z,17.5
2022-10-22T13:02:26.484Z,17.5
2022-10-22T13:04:05.210Z,17.5
2022-10-22T13:07:54.815Z,17.6
2022-10-22T13:09:02.984Z,17.5
2022-10-22T13:12:20.489Z,17.4
2022-10-22T13:15:36.102Z,17.1
2022-10-22T13:16:42.635Z,17.2
2022-10-22T13:17:49.190Z,17.2
2022-10-22T13:18:55.754Z,17.1
2022-10-22T13:20:02.300Z,17.1
2022-10-22T13:21:08.978Z,17.1
2022-10-22T13:22:15.418Z,17.1
2022-10-22T13:23:21.968Z,17.1
2022-10-22T13:24:28.532Z,17.1
2022-10-22T13:25:35.086Z,17.1
2022-10-22T13:26:41.657Z,17.2
2022-10-22T13:27:48.234Z,17.2
2022-10-22T13:28:54.774Z,17.2
2022-10-22T13:30:01.329Z,17.1
2022-10-22T13:31:07.855Z,17.1
2022-10-22T13:32:14.415Z,17.1
2022-10-22T13:33:21.000Z,17
2022-10-22T13:34:27.518Z,17
2022-10-22T13:35:34.100Z,17
2022-10-22T13:36:40.618Z,17
2022-10-22T13:37:47.166Z,17.1
2022-10-22T13:38:53.731Z,17.2
2022-10-22T13:40:00.286Z,17.2
2022-10-22T13:41:06.843Z,17.3
2022-10-22T13:42:13.391Z,17.4
2022-10-22T13:43:20.186Z,17.5
2022-10-22T13:44:26.980Z,17.6
2022-10-22T13:45:33.780Z,17.7
2022-10-22T13:46:40.565Z,17.7
2022-10-22T13:47:47.378Z,17.6
2022-10-22T13:48:54.147Z,17.7
2022-10-22T13:50:00.947Z,17.8
2022-10-22T13:51:07.747Z,17.8
2022-10-22T13:52:14.536Z,17.8
2022-10-22T13:53:21.325Z,17.9
2022-10-22T13:54:28.108Z,17.8
2022-10-22T13:55:34.903Z,17.9
2022-10-22T13:56:41.695Z,17.9
2022-10-22T13:59:20.787Z,18
2022-10-22T14:00:59.524Z,18
2022-10-22T14:02:38.246Z,18
2022-10-22T14:04:17.024Z,17.9
2022-10-22T14:05:24.251Z,17.8
2022-10-22T14:06:31.533Z,17.7
2022-10-22T14:08:10.256Z,17.7
2022-10-22T14:09:48.993Z,17.6
2022-10-22T14:11:27.743Z,17.4
2022-10-22T14:13:06.465Z,17.2
2022-10-22T14:14:45.201Z,17.2
2022-10-22T14:16:23.939Z,17.1
2022-10-22T14:18:02.681Z,17.1
2022-10-22T14:21:52.276Z,17.1
2022-10-22T14:23:00.566Z,17
2022-10-22T14:26:16.281Z,17
2022-10-22T14:27:22.795Z,17
2022-10-22T14:28:29.332Z,17
2022-10-22T14:29:35.937Z,17
2022-10-22T14:30:42.446Z,17.1
2022-10-22T14:31:49.022Z,17.1
2022-10-22T14:32:55.562Z,17.1
2022-10-22T14:34:02.111Z,17.1
2022-10-22T14:35:08.669Z,17.1
2022-10-22T14:36:15.255Z,17.2
2022-10-22T14:37:21.769Z,17.2
2022-10-22T14:38:28.353Z,17.2
2022-10-22T14:39:34.910Z,17.3
2022-10-22T14:40:41.470Z,17.3
2022-10-22T14:41:48.019Z,17.3
2022-10-22T14:42:54.554Z,17.2
2022-10-22T14:44:01.111Z,17.3
2022-10-22T14:45:07.663Z,17.3
2022-10-22T14:46:14.225Z,17.3
2022-10-22T14:47:20.769Z,17.3
2022-10-22T14:48:27.357Z,17.2
2022-10-22T14:49:33.880Z,17.2
2022-10-22T14:50:40.436Z,17.2
2022-10-22T14:51:47.048Z,17.1
2022-10-22T14:52:53.597Z,17.1
2022-10-22T14:54:00.337Z,17.1
2022-10-22T14:55:07.135Z,17.1
2022-10-22T14:56:13.931Z,17.1
2022-10-22T14:57:20.732Z,17.1
2022-10-22T14:58:27.569Z,17.1
2022-10-22T14:59:34.313Z,17
2022-10-22T15:00:41.101Z,17
2022-10-22T15:01:47.906Z,16.9
2022-10-22T15:02:54.680Z,17
2022-10-22T15:04:01.496Z,17
2022-10-22T15:05:08.283Z,17
2022-10-22T15:06:15.036Z,17
2022-10-22T15:07:21.852Z,17
2022-10-22T15:10:39.943Z,17
2022-10-22T15:12:15.574Z,17.2
2022-10-22T15:13:22.785Z,17.3
2022-10-22T15:15:01.476Z,17.3
2022-10-22T15:16:40.309Z,17.3
2022-10-22T15:18:18.948Z,17.3
2022-10-22T15:19:57.756Z,17.1
2022-10-22T15:21:36.481Z,17
2022-10-22T15:23:15.281Z,16.9
2022-10-22T15:24:53.904Z,16.7
2022-10-22T15:26:32.736Z,16.6
2022-10-22T15:28:11.351Z,16.4
2022-10-22T15:29:18.613Z,16.2
2022-10-22T15:32:19.458Z,16.1
2022-10-22T15:35:35.080Z,15.9
2022-10-22T15:36:41.641Z,15.6
2022-10-22T15:37:48.185Z,15.5
2022-10-22T15:38:54.744Z,15.5
2022-10-22T15:40:01.297Z,15.4
2022-10-22T15:41:07.840Z,15.3
2022-10-22T15:42:14.509Z,15.3
2022-10-22T15:43:21.043Z,15.2
2022-10-22T15:44:27.506Z,15.1
2022-10-22T15:45:34.058Z,15.1
2022-10-22T15:46:40.693Z,15
2022-10-22T15:47:47.236Z,15
2022-10-22T15:48:53.835Z,14.9
2022-10-22T15:50:00.258Z,14.9
2022-10-22T15:51:06.814Z,14.9
2022-10-22T15:52:13.500Z,14.8
2022-10-22T15:53:19.926Z,14.8
2022-10-22T15:54:26.561Z,14.7
2022-10-22T15:55:33.160Z,14.7
2022-10-22T15:56:39.737Z,14.7
2022-10-22T15:57:46.280Z,14.6
2022-10-22T15:58:52.705Z,14.6
2022-10-22T15:59:59.245Z,14.5
2022-10-22T16:01:05.806Z,14.5
2022-10-22T16:02:12.362Z,14.5
2022-10-22T16:03:19.147Z,14.4
2022-10-22T16:04:25.972Z,14.4
2022-10-22T16:05:32.779Z,14.3
2022-10-22T16:06:39.524Z,14.3
2022-10-22T16:07:46.316Z,14.2
2022-10-22T16:08:53.168Z,14.1
2022-10-22T16:09:59.905Z,14.1
2022-10-22T16:11:06.702Z,14
2022-10-22T16:12:13.503Z,14
2022-10-22T16:13:20.353Z,13.9
2022-10-22T16:14:27.081Z,13.9
2022-10-22T16:15:33.916Z,13.8
2022-10-22T16:16:40.697Z,13.8
2022-10-22T16:17:47.949Z,13.7
2022-10-22T16:19:26.695Z,13.7
2022-10-22T16:21:05.449Z,13.7
2022-10-22T16:22:44.182Z,13.6
2022-10-22T16:24:22.891Z,13.6
2022-10-22T16:26:01.627Z,13.5
2022-10-22T16:27:40.366Z,13.4
2022-10-22T16:29:19.115Z,13.4
2022-10-22T16:30:57.859Z,13.3
2022-10-22T16:32:36.619Z,13.2
2022-10-22T16:34:15.310Z,13.2
2022-10-22T16:35:54.056Z,13.1
2022-10-22T16:37:32.817Z,13.1
2022-10-22T16:41:40.832Z,13.1
2022-10-22T16:42:47.417Z,13.1
2022-10-22T16:44:56.498Z,13
2022-10-22T16:46:03.087Z,12.9
2022-10-22T16:47:09.623Z,12.8
2022-10-22T16:48:16.182Z,12.8
2022-10-22T16:49:22.751Z,12.7
2022-10-22T16:50:29.272Z,12.7
2022-10-22T16:51:35.825Z,12.6
2022-10-22T16:52:42.377Z,12.6
2022-10-22T16:53:48.950Z,12.5
2022-10-22T16:54:55.534Z,12.5
2022-10-22T16:56:02.042Z,12.4
2022-10-22T16:57:08.595Z,12.4
2022-10-22T16:58:15.153Z,12.4
2022-10-22T16:59:21.720Z,12.3
2022-10-22T17:00:28.262Z,12.3
2022-10-22T17:01:34.815Z,12.3
2022-10-22T17:02:41.376Z,12.3
2022-10-22T17:03:47.935Z,12.2
2022-10-22T17:04:54.495Z,12.2
2022-10-22T17:06:01.064Z,12.2
2022-10-22T17:07:07.592Z,12.1
2022-10-22T17:08:14.158Z,12.1
2022-10-22T17:09:20.711Z,12.1
2022-10-22T17:10:27.270Z,12.1
2022-10-22T17:11:34.071Z,12
2022-10-22T17:12:40.846Z,12
2022-10-22T17:13:47.660Z,12
2022-10-22T17:14:54.440Z,12
2022-10-22T17:16:01.209Z,12
2022-10-22T17:17:08.002Z,11.9
2022-10-22T17:18:14.810Z,11.9
2022-10-22T17:19:21.588Z,11.9
2022-10-22T17:20:28.397Z,11.8
2022-10-22T17:21:35.219Z,11.8
2022-10-22T17:22:41.973Z,11.8
2022-10-22T17:23:48.769Z,11.7
2022-10-22T17:24:55.563Z,11.7
2022-10-22T17:27:35.089Z,11.7
2022-10-22T17:29:13.826Z,11.7
2022-10-22T17:30:52.567Z,11.6
2022-10-22T17:32:31.302Z,11.6
2022-10-22T17:33:38.576Z,11.6
2022-10-22T17:34:45.853Z,11.5
2022-10-22T17:36:24.594Z,11.5
2022-10-22T17:38:03.371Z,11.5
2022-10-22T17:39:42.063Z,11.5
2022-10-22T17:41:20.799Z,11.5
2022-10-22T17:42:59.555Z,11.4
2022-10-22T17:44:38.274Z,11.4
2022-10-22T17:46:17.022Z,11.3
2022-10-22T17:50:06.565Z,11.3
2022-10-22T17:51:13.400Z,11.1
2022-10-22T17:52:20.220Z,11.1
2022-10-22T17:53:26.992Z,11.1
2022-10-22T17:54:33.829Z,11.1
2022-10-22T17:55:40.593Z,11
2022-10-22T17:56:47.413Z,11
2022-10-22T17:57:54.207Z,11
2022-10-22T17:59:00.964Z,11
2022-10-22T18:00:07.742Z,11
2022-10-22T18:01:14.529Z,11
2022-10-22T18:02:21.371Z,11
2022-10-22T18:03:28.120Z,11
2022-10-22T18:04:34.891Z,11
2022-10-22T18:05:41.689Z,10.9
2022-10-22T18:06:48.511Z,10.9
2022-10-22T18:07:55.263Z,10.9
2022-10-22T18:09:02.295Z,10.9
2022-10-22T18:10:08.838Z,10.8
2022-10-22T18:11:15.653Z,10.8
2022-10-22T18:12:22.468Z,10.8
2022-10-22T18:13:29.229Z,10.8
2022-10-22T18:14:36.018Z,10.8
2022-10-22T18:15:42.800Z,10.8
2022-10-22T18:16:49.580Z,10.8
2022-10-22T18:17:56.380Z,10.8